Time;durP1;ratioP1;P1;durP2;ratioP2;P2;SDS_P1;SDS_P2;PMS_P1;PMS_P2;Temp;Humidity;BMP_temperature;BMP_pressure;BME280_temperature;BME280_humidity;BME280_pressure;Samples;Min_cycle;Max_cycle;Signal;HPM_P1;HPM_P2
2022/01/12 00:01:37;;;;;;;28.33;11.40;;;4.60;99.90;;;;;;5092819;28;20027;-75
2022/01/12 00:04:03;;;;;;;23.98;12.07;;;4.60;99.90;;;;;;5091369;28;20025;-75
2022/01/12 00:06:28;;;;;;;22.05;11.30;;;4.60;99.90;;;;;;5094013;28;20020;-75
2022/01/12 00:08:55;;;;;;;17.27;9.43;;;4.60;99.70;;;;;;5096432;28;20024;-75
2022/01/12 00:11:22;;;;;;;21.02;10.57;;;4.70;99.20;;;;;;5096312;28;20055;-75
2022/01/12 00:13:51;;;;;;;19.05;10.32;;;4.70;99.30;;;;;;5095487;28;20269;-75
2022/01/12 00:16:17;;;;;;;20.95;9.82;;;4.70;99.30;;;;;;5095808;28;20422;-75
2022/01/12 00:18:45;;;;;;;17.65;9.80;;;4.70;98.80;;;;;;5096143;28;20142;-75
2022/01/12 00:21:12;;;;;;;17.73;9.35;;;4.80;98.80;;;;;;5095713;28;20042;-76
2022/01/12 00:23:39;;;;;;;19.27;9.15;;;4.80;99.00;;;;;;5094625;28;20031;-76
2022/01/12 00:26:37;;;;;;;21.17;9.55;;;4.80;98.50;;;;;;5095461;28;20028;-75
2022/01/12 00:34:36;;;;;;;18.10;9.60;;;4.90;98.10;;;;;;5087002;28;20046;-75
2022/01/12 00:37:02;;;;;;;18.85;8.80;;;4.90;98.10;;;;;;5095849;28;20024;-75
2022/01/12 00:39:28;;;;;;;16.70;8.65;;;4.90;98.00;;;;;;5095678;28;20509;-75
2022/01/12 00:41:54;;;;;;;17.48;9.45;;;4.90;98.20;;;;;;5095226;28;20028;-74
2022/01/12 00:44:24;;;;;;;17.08;9.07;;;4.90;98.00;;;;;;5095417;28;20036;-75
2022/01/12 00:46:51;;;;;;;16.08;9.10;;;5.00;98.30;;;;;;5095649;28;20032;-75
2022/01/12 00:49:17;;;;;;;14.75;8.52;;;4.90;98.10;;;;;;5095441;28;20052;-75
2022/01/12 00:51:43;;;;;;;17.90;9.45;;;4.90;98.40;;;;;;5095853;28;20043;-75
2022/01/12 00:54:09;;;;;;;19.45;9.85;;;4.90;98.40;;;;;;5095405;28;20020;-75
2022/01/12 00:56:36;;;;;;;19.52;9.43;;;4.80;98.60;;;;;;5095376;28;20164;-75
2022/01/12 00:59:02;;;;;;;20.20;9.30;;;4.80;98.70;;;;;;5094110;28;20383;-75
2022/01/12 01:01:28;;;;;;;24.90;9.93;;;4.80;98.60;;;;;;5093228;28;20028;-74
2022/01/12 01:03:55;;;;;;;17.98;9.48;;;4.80;98.90;;;;;;5093997;28;20032;-75
2022/01/12 01:06:22;;;;;;;19.45;10.00;;;4.70;98.90;;;;;;5095446;28;20117;-74
2022/01/12 01:08:51;;;;;;;19.55;9.45;;;4.70;98.90;;;;;;5095326;28;20026;-75
2022/01/12 01:11:21;;;;;;;17.88;10.13;;;4.70;98.20;;;;;;5095346;28;20044;-75
2022/01/12 01:14:15;;;;;;;24.10;9.35;;;4.80;98.60;;;;;;5094112;28;20046;-75
2022/01/12 01:27:18;;;;;;;17.13;7.70;;;4.80;97.90;;;;;;5094728;28;20047;-75
2022/01/12 01:29:44;;;;;;;16.17;8.00;;;4.90;97.70;;;;;;5094258;28;20015;-75
2022/01/12 01:32:11;;;;;;;15.23;8.23;;;4.80;97.80;;;;;;5094354;28;20028;-75
2022/01/12 01:34:43;;;;;;;17.10;7.63;;;4.90;97.70;;;;;;5094710;28;20059;-76
2022/01/12 01:37:09;;;;;;;24.52;8.18;;;4.90;97.40;;;;;;5094702;28;20028;-75
2022/01/12 01:39:35;;;;;;;17.55;8.35;;;4.90;97.60;;;;;;5093258;28;20059;-76
2022/01/12 01:42:05;;;;;;;23.73;9.07;;;4.90;97.80;;;;;;5094672;28;20051;-75
2022/01/12 01:55:18;;;;;;;22.35;11.07;;;4.50;99.90;;;;;;5094430;28;20077;-75
2022/01/12 01:57:44;;;;;;;24.52;9.43;;;4.50;99.90;;;;;;5094140;28;20020;-75
2022/01/12 02:00:16;;;;;;;23.08;11.30;;;4.40;99.60;;;;;;5094230;28;20020;-74
2022/01/12 02:02:44;;;;;;;;;;;4.40;99.90;;;;;;5094822;28;20491;-75
2022/01/12 02:05:10;;;;;;;18.77;9.10;;;4.40;99.90;;;;;;5093980;28;19912;-75
2022/01/12 02:07:36;;;;;;;17.95;8.85;;;4.30;99.80;;;;;;5092615;28;20241;-76
2022/01/12 02:10:02;;;;;;;18.13;9.02;;;4.40;99.60;;;;;;5093846;28;20027;-75
2022/01/12 02:12:28;;;;;;;19.23;8.27;;;4.30;99.30;;;;;;5094186;28;20028;-75
2022/01/12 02:14:56;;;;;;;14.68;8.60;;;4.40;99.20;;;;;;5092560;28;20369;-75
2022/01/12 02:17:27;;;;;;;16.13;8.32;;;4.30;99.10;;;;;;5093834;28;20024;-75
2022/01/12 02:36:58;;;;;;;19.35;9.20;;;4.50;99.20;;;;;;5093933;28;20079;-74
2022/01/12 02:42:09;;;;;;;19.25;9.05;;;4.40;99.30;;;;;;5093518;28;20551;-75
2022/01/12 02:55:33;;;;;;;15.35;8.38;;;4.50;98.50;;;;;;5093740;28;20066;-75
2022/01/12 02:57:59;;;;;;;16.02;7.95;;;4.50;99.20;;;;;;5093418;28;20109;-74
2022/01/12 03:00:34;;;;;;;14.52;7.35;;;4.60;98.20;;;;;;5092617;28;20434;-75
2022/01/12 03:03:03;;;;;;;13.35;6.78;;;4.70;97.90;;;;;;5093357;28;20062;-75
2022/01/12 03:05:44;;;;;;;42.85;7.40;;;4.80;97.70;;;;;;5072806;28;20448;-75
2022/01/12 03:08:14;;;;;;;14.32;8.13;;;4.80;97.80;;;;;;5080321;28;20397;-76
2022/01/12 03:10:40;;;;;;;15.40;7.40;;;4.80;97.50;;;;;;5091633;28;20054;-75
2022/01/12 03:13:06;;;;;;;24.58;7.80;;;4.80;97.30;;;;;;5093241;28;20024;-75
2022/01/12 03:15:39;;;;;;;13.27;7.10;;;4.90;97.30;;;;;;5093470;28;20024;-75
2022/01/12 03:18:05;;;;;;;13.20;6.88;;;4.90;97.40;;;;;;5093398;28;20051;-77
2022/01/12 03:20:31;;;;;;;18.15;9.43;;;4.80;97.50;;;;;;5093198;28;20028;-74
2022/01/12 03:22:56;;;;;;;11.57;7.00;;;4.80;97.50;;;;;;5093161;28;20016;-75
2022/01/12 03:25:22;;;;;;;21.33;8.10;;;4.80;97.30;;;;;;5093545;28;20456;-76
2022/01/12 03:27:49;;;;;;;11.65;6.07;;;4.80;97.40;;;;;;5092877;28;20468;-75
2022/01/12 03:30:15;;;;;;;18.48;7.75;;;4.80;97.30;;;;;;5092654;28;20026;-75
2022/01/12 03:32:46;;;;;;;12.50;7.95;;;4.80;97.50;;;;;;5092444;28;20095;-75
2022/01/12 03:36:13;;;;;;;13.73;7.03;;;4.80;97.40;;;;;;5092580;28;20510;-75
2022/01/12 03:38:20;;;;;;;12.68;7.47;;;4.80;97.60;;;;;;5089139;28;20085;-75
2022/01/12 03:40:49;;;;;;;15.25;7.25;;;4.80;97.70;;;;;;5092382;28;20020;-75
2022/01/12 03:43:17;;;;;;;18.85;7.57;;;4.80;97.60;;;;;;5092856;28;20027;-75
2022/01/12 03:45:44;;;;;;;15.38;8.30;;;4.80;97.70;;;;;;5092480;28;20050;-75
2022/01/12 03:48:10;;;;;;;11.27;6.72;;;4.70;97.70;;;;;;5092031;28;20020;-75
2022/01/12 03:50:36;;;;;;;14.73;6.85;;;4.70;97.50;;;;;;5091771;28;20085;-75
2022/01/12 03:53:02;;;;;;;16.83;7.93;;;4.80;97.40;;;;;;5092182;28;20031;-75
2022/01/12 03:55:29;;;;;;;18.40;7.40;;;4.80;97.40;;;;;;5092000;28;20492;-74
2022/01/12 03:57:54;;;;;;;14.52;7.35;;;4.80;97.50;;;;;;5092486;28;20380;-75
2022/01/12 04:00:20;;;;;;;12.82;6.95;;;4.70;97.40;;;;;;5092454;28;20020;-75
2022/01/12 04:02:46;;;;;;;16.38;8.52;;;4.70;97.60;;;;;;5091162;28;20507;-75
2022/01/12 04:05:27;;;;;;;14.32;7.93;;;4.70;97.80;;;;;;5092530;28;20039;-75
2022/01/12 04:10:37;;;;;;;13.38;7.07;;;4.60;97.80;;;;;;5092358;28;20059;-75
2022/01/12 04:13:04;;;;;;;13.00;7.15;;;4.60;97.70;;;;;;5092557;28;20020;-75
2022/01/12 04:15:30;;;;;;;18.63;7.40;;;4.60;98.00;;;;;;5092157;28;20085;-75
2022/01/12 04:17:55;;;;;;;16.33;7.57;;;4.50;98.00;;;;;;5090919;28;20473;-75
2022/01/12 04:20:21;;;;;;;12.93;7.63;;;4.50;98.10;;;;;;5092441;28;20036;-75
2022/01/12 04:25:31;;;;;;;16.20;7.97;;;4.50;98.40;;;;;;5091842;28;20106;-75
2022/01/12 04:27:57;;;;;;;17.27;8.60;;;4.40;98.30;;;;;;5091661;28;20461;-75
2022/01/12 04:30:22;;;;;;;14.75;8.10;;;4.40;98.80;;;;;;5091334;28;20028;-75
2022/01/12 04:32:48;;;;;;;17.05;7.15;;;4.40;98.50;;;;;;5091831;28;20532;-75
2022/01/12 04:35:15;;;;;;;15.88;7.75;;;4.40;98.40;;;;;;5091754;28;20035;-75
2022/01/12 04:37:41;;;;;;;13.77;7.75;;;4.40;98.10;;;;;;5092188;28;20023;-75
2022/01/12 04:40:08;;;;;;;12.68;6.75;;;4.40;98.00;;;;;;5092051;28;20024;-74
2022/01/12 04:42:35;;;;;;;14.43;7.75;;;4.40;97.80;;;;;;5091972;28;20401;-74
2022/01/12 04:45:15;;;;;;;13.68;7.15;;;4.50;98.00;;;;;;5092195;28;20048;-75
2022/01/12 04:50:23;;;;;;;12.60;7.13;;;4.50;97.70;;;;;;5091984;28;20377;-76
2022/01/12 04:52:49;;;;;;;12.25;6.57;;;4.50;97.30;;;;;;5093946;28;20357;-75
2022/01/12 04:55:15;;;;;;;14.05;6.45;;;4.50;97.10;;;;;;5095753;28;20028;-75
2022/01/12 04:57:41;;;;;;;14.70;6.90;;;4.60;97.00;;;;;;5095409;28;20065;-75
2022/01/12 05:00:18;;;;;;;10.30;6.50;;;4.60;96.70;;;;;;5075297;28;20031;-76
2022/01/12 05:13:44;;;;;;;9.93;6.07;;;4.80;95.60;;;;;;5095329;28;20034;-76
2022/01/12 05:16:10;;;;;;;11.50;6.10;;;4.80;95.70;;;;;;5096941;28;20028;-76
2022/01/12 05:18:37;;;;;;;10.75;6.07;;;4.80;95.80;;;;;;5095252;28;20028;-76
2022/01/12 05:21:05;;;;;;;10.48;6.07;;;4.80;95.50;;;;;;5095483;28;20057;-75
2022/01/12 05:23:32;;;;;;;11.63;6.13;;;4.80;95.70;;;;;;5094929;28;20028;-76
2022/01/12 05:25:58;;;;;;;14.93;5.38;;;4.80;95.50;;;;;;5094957;28;20032;-76
2022/01/12 05:28:25;;;;;;;12.98;5.95;;;4.80;95.60;;;;;;5095188;28;20088;-75
2022/01/12 05:30:52;;;;;;;12.75;6.15;;;4.80;95.50;;;;;;5093860;28;20024;-76
2022/01/12 05:33:18;;;;;;;10.90;5.43;;;4.80;95.50;;;;;;5095218;28;20024;-75
2022/01/12 05:35:44;;;;;;;8.32;5.22;;;4.80;95.30;;;;;;5095034;28;20020;-76
2022/01/12 05:38:13;;;;;;;9.10;5.57;;;4.80;95.20;;;;;;5093957;28;20063;-75
2022/01/12 05:40:41;;;;;;;10.75;5.78;;;4.80;95.20;;;;;;5094412;28;20103;-76
2022/01/12 05:43:08;;;;;;;11.18;5.90;;;4.80;95.20;;;;;;5094731;28;20023;-76
2022/01/12 05:45:37;;;;;;;8.35;4.97;;;4.80;94.80;;;;;;5094665;28;20071;-75
2022/01/12 05:50:36;;;;;;;;;;;4.90;94.80;;;;;;5094875;28;20020;-76
2022/01/12 05:53:02;;;;;;;10.35;6.05;;;4.90;94.90;;;;;;5094617;28;19908;-76
2022/01/12 05:55:28;;;;;;;10.25;5.60;;;4.90;94.90;;;;;;5094376;28;20028;-76
2022/01/12 05:57:54;;;;;;;11.20;5.38;;;4.90;94.80;;;;;;5094384;28;20533;-76
2022/01/12 06:00:21;;;;;;;11.60;5.22;;;4.90;94.80;;;;;;5094570;28;20032;-76
2022/01/12 06:02:47;;;;;;;10.25;5.75;;;4.90;95.00;;;;;;5093481;28;20508;-76
2022/01/12 06:05:18;;;;;;;10.48;5.75;;;4.80;94.70;;;;;;5094337;28;20050;-76
2022/01/12 06:07:44;;;;;;;12.07;6.03;;;4.80;94.50;;;;;;5093257;28;20107;-76
2022/01/12 06:10:11;;;;;;;10.57;5.60;;;4.90;94.40;;;;;;5094332;28;20266;-75
2022/01/12 06:12:38;;;;;;;13.57;5.25;;;4.90;94.50;;;;;;5094536;28;20024;-75
2022/01/12 06:15:05;;;;;;;10.05;6.00;;;4.90;94.30;;;;;;5094344;28;20020;-76
2022/01/12 06:17:30;;;;;;;7.43;5.30;;;4.90;94.40;;;;;;5094214;28;20103;-75
2022/01/12 06:19:56;;;;;;;10.02;5.53;;;4.90;94.20;;;;;;5093333;28;20500;-75
2022/01/12 06:22:24;;;;;;;9.32;5.60;;;4.90;94.10;;;;;;5093671;28;20081;-75
2022/01/12 06:24:54;;;;;;;9.73;5.25;;;4.90;94.20;;;;;;5091976;28;20036;-75
2022/01/12 06:27:21;;;;;;;9.60;5.80;;;4.90;94.30;;;;;;5093208;28;20043;-75
2022/01/12 06:30:03;;;;;;;14.27;5.55;;;4.90;94.40;;;;;;5094307;28;20020;-75
2022/01/12 06:32:30;;;;;;;18.55;6.18;;;4.80;94.60;;;;;;5094244;28;20108;-76
2022/01/12 06:34:56;;;;;;;12.25;5.93;;;4.80;94.60;;;;;;5083450;28;20409;-76
2022/01/12 06:37:22;;;;;;;9.43;5.50;;;4.80;94.60;;;;;;5077383;28;20025;-75
2022/01/12 06:39:49;;;;;;;11.25;5.72;;;4.80;94.60;;;;;;5075471;28;20159;-76
2022/01/12 06:42:15;;;;;;;10.82;5.80;;;4.80;95.00;;;;;;5076406;28;20017;-76
2022/01/12 06:44:40;;;;;;;11.43;5.78;;;4.80;94.50;;;;;;5076233;28;20059;-76
2022/01/12 06:47:06;;;;;;;15.10;6.53;;;4.80;94.80;;;;;;5078730;28;20479;-76
2022/01/12 06:49:32;;;;;;;10.80;6.38;;;4.70;94.90;;;;;;5076851;28;20028;-76
2022/01/12 06:52:01;;;;;;;9.45;5.63;;;4.70;95.00;;;;;;5079424;28;20032;-76
2022/01/12 06:54:27;;;;;;;15.55;5.43;;;4.70;94.90;;;;;;5078816;28;20484;-75
2022/01/12 06:56:53;;;;;;;12.23;6.78;;;4.70;95.10;;;;;;5076358;28;20016;-75
2022/01/12 06:59:19;;;;;;;11.68;5.55;;;4.70;95.40;;;;;;5076956;28;20028;-75
2022/01/12 07:01:45;;;;;;;15.70;8.55;;;4.60;95.30;;;;;;5077992;28;20036;-76
2022/01/12 07:04:11;;;;;;;16.27;8.95;;;4.60;95.70;;;;;;5080183;28;20029;-77
2022/01/12 07:06:37;;;;;;;16.00;8.02;;;4.60;96.30;;;;;;5078351;28;20024;-73
2022/01/12 07:09:04;;;;;;;13.60;7.65;;;4.50;96.70;;;;;;5075687;28;20035;-75
2022/01/12 07:11:30;;;;;;;16.58;8.32;;;4.40;97.20;;;;;;5076045;28;20113;-75
2022/01/12 07:13:56;;;;;;;15.07;8.05;;;4.40;97.40;;;;;;5073388;28;20028;-75
2022/01/12 07:16:22;;;;;;;12.18;6.88;;;4.60;97.30;;;;;;5073398;28;20021;-75
2022/01/12 07:18:47;;;;;;;15.65;7.85;;;4.70;97.20;;;;;;5073010;28;20024;-75
2022/01/12 07:21:13;;;;;;;12.48;7.22;;;4.90;96.90;;;;;;5071627;28;20380;-75
2022/01/12 07:23:39;;;;;;;13.20;7.80;;;5.10;96.80;;;;;;5073151;28;20029;-76
2022/01/12 07:26:05;;;;;;;16.63;8.05;;;5.30;96.10;;;;;;5073620;28;20035;-76
2022/01/12 07:28:31;;;;;;;12.80;7.57;;;5.50;96.10;;;;;;5072588;28;20488;-76
2022/01/12 07:30:57;;;;;;;16.00;8.20;;;5.70;96.00;;;;;;5072323;28;20036;-75
2022/01/12 07:33:25;;;;;;;13.63;7.13;;;5.80;96.00;;;;;;5072651;28;20091;-75
2022/01/12 07:35:51;;;;;;;16.48;8.20;;;5.90;95.80;;;;;;5072925;28;20039;-76
2022/01/12 07:38:17;;;;;;;17.45;7.97;;;6.10;96.00;;;;;;5072790;28;20461;-76
2022/01/12 07:40:43;;;;;;;10.73;6.78;;;6.20;95.80;;;;;;5072750;28;20035;-76
2022/01/12 07:43:09;;;;;;;12.32;7.38;;;6.40;95.80;;;;;;5072707;28;20427;-75
2022/01/12 07:45:36;;;;;;;13.25;6.97;;;6.50;95.10;;;;;;5092002;28;20044;-76
2022/01/12 07:48:02;;;;;;;19.45;7.97;;;6.70;94.60;;;;;;5092821;28;20028;-76
2022/01/12 07:50:28;;;;;;;12.02;7.10;;;6.90;94.40;;;;;;5092895;28;20031;-76
2022/01/12 07:52:53;;;;;;;12.88;7.35;;;7.20;94.00;;;;;;5091542;28;20016;-74
2022/01/12 07:55:23;;;;;;;19.63;6.95;;;7.50;93.70;;;;;;5092831;28;20392;-76
2022/01/12 07:57:51;;;;;;;12.88;7.28;;;7.70;92.80;;;;;;5092917;28;20012;-76
2022/01/12 08:00:18;;;;;;;12.68;7.13;;;8.10;93.00;;;;;;5092186;28;20028;-76
2022/01/12 08:02:44;;;;;;;15.23;7.93;;;8.60;92.80;;;;;;5090051;28;20484;-74
2022/01/12 08:05:10;;;;;;;12.65;6.53;;;8.90;92.00;;;;;;5092301;28;20039;-76
2022/01/12 08:07:38;;;;;;;11.75;6.80;;;8.60;92.00;;;;;;5092142;28;20480;-76
2022/01/12 08:10:06;;;;;;;12.18;6.95;;;8.50;92.20;;;;;;5092007;28;20024;-75
2022/01/12 08:12:32;;;;;;;12.85;7.05;;;8.60;92.40;;;;;;5090000;28;20051;-76
2022/01/12 08:14:57;;;;;;;12.38;6.97;;;9.00;92.10;;;;;;5091761;28;20458;-75
2022/01/12 08:17:23;;;;;;;16.23;6.18;;;9.20;91.50;;;;;;5090913;28;20043;-75
2022/01/12 08:19:51;;;;;;;15.88;7.25;;;9.30;91.00;;;;;;5106966;28;20031;-75
2022/01/12 08:22:16;;;;;;;14.00;7.25;;;8.90;91.10;;;;;;5090666;28;20016;-75
2022/01/12 08:24:42;;;;;;;12.45;6.53;;;9.10;91.40;;;;;;5090892;28;20112;-76
2022/01/12 08:27:09;;;;;;;26.15;8.68;;;9.70;90.50;;;;;;5092759;28;20356;-74
2022/01/12 08:29:35;;;;;;;15.88;7.30;;;10.30;90.20;;;;;;5095698;28;20016;-74
2022/01/12 08:32:00;;;;;;;14.50;7.63;;;10.90;88.00;;;;;;5095773;28;20426;-75
2022/01/12 08:34:26;;;;;;;11.65;7.00;;;11.00;87.60;;;;;;5096045;28;20017;-76
2022/01/12 08:36:52;;;;;;;10.65;6.70;;;11.00;87.40;;;;;;5096130;28;20039;-75
2022/01/12 08:39:18;;;;;;;11.52;6.50;;;11.30;86.70;;;;;;5095641;28;20085;-75
2022/01/12 08:41:44;;;;;;;14.15;6.78;;;11.30;85.40;;;;;;5093440;28;20088;-79
2022/01/12 08:44:10;;;;;;;10.18;5.65;;;11.50;84.70;;;;;;5093676;28;20614;-76
2022/01/12 08:46:38;;;;;;;10.90;6.07;;;11.60;84.90;;;;;;5095013;28;20058;-75
2022/01/12 08:49:04;;;;;;;11.73;6.53;;;12.10;83.30;;;;;;5095546;28;20020;-76
2022/01/12 08:51:30;;;;;;;9.27;5.75;;;12.50;82.80;;;;;;5093358;28;20024;-81
2022/01/12 08:53:55;;;;;;;10.93;6.50;;;12.70;81.60;;;;;;5099128;28;20112;-74
2022/01/12 08:56:21;;;;;;;10.80;6.53;;;13.10;80.80;;;;;;5094352;28;20035;-74
2022/01/12 08:58:48;;;;;;;14.77;8.27;;;13.50;79.30;;;;;;5095442;28;20028;-77
2022/01/12 09:01:14;;;;;;;12.55;7.15;;;13.40;79.30;;;;;;5095500;28;20031;-74
2022/01/12 09:03:40;;;;;;;14.75;7.72;;;13.90;78.00;;;;;;5094657;28;20035;-75
2022/01/12 09:06:07;;;;;;;10.65;6.38;;;14.00;78.50;;;;;;5094482;28;20044;-74
2022/01/12 09:08:34;;;;;;;10.77;6.22;;;14.20;76.20;;;;;;5094177;28;20016;-74
2022/01/12 09:11:00;;;;;;;13.25;7.40;;;14.50;75.00;;;;;;5094692;28;20107;-74
2022/01/12 09:13:27;;;;;;;11.35;6.65;;;14.80;73.50;;;;;;5094560;28;20035;-76
2022/01/12 09:15:53;;;;;;;12.20;6.47;;;14.40;72.60;;;;;;5095036;28;20484;-75
2022/01/12 09:18:18;;;;;;;8.68;5.78;;;13.60;72.50;;;;;;5095284;28;20080;-76
2022/01/12 09:20:45;;;;;;;13.13;6.43;;;13.50;72.50;;;;;;5094908;28;20043;-74
2022/01/12 09:23:11;;;;;;;8.80;4.80;;;13.40;72.60;;;;;;5094395;28;20549;-75
2022/01/12 09:25:39;;;;;;;10.88;6.13;;;13.30;70.40;;;;;;5093703;28;20044;-74
2022/01/12 09:28:06;;;;;;;10.32;6.10;;;12.80;72.00;;;;;;5094857;28;20020;-76
2022/01/12 09:30:32;;;;;;;11.40;7.03;;;12.90;72.90;;;;;;5094764;28;20024;-75
2022/01/12 09:32:59;;;;;;;9.88;6.15;;;12.60;72.50;;;;;;5092706;28;20397;-75
2022/01/12 09:35:25;;;;;;;8.93;5.93;;;12.10;73.60;;;;;;5092804;28;20552;-74
2022/01/12 09:37:50;;;;;;;9.10;5.53;;;12.00;74.40;;;;;;5093608;28;20032;-75
2022/01/12 09:40:16;;;;;;;11.70;6.80;;;12.00;74.40;;;;;;5094575;28;20032;-76
2022/01/12 09:42:44;;;;;;;9.88;5.75;;;11.60;74.20;;;;;;5093322;28;20023;-75
2022/01/12 09:45:14;;;;;;;10.35;5.68;;;11.30;74.80;;;;;;5093581;28;20047;-75
2022/01/12 09:47:40;;;;;;;8.27;5.38;;;11.30;73.30;;;;;;5094526;28;20016;-75
2022/01/12 09:50:06;;;;;;;14.15;5.15;;;11.50;73.70;;;;;;5093693;28;20031;-75
2022/01/12 09:52:32;;;;;;;13.07;5.80;;;11.60;74.20;;;;;;5093822;28;20095;-75
2022/01/12 09:54:58;;;;;;;10.52;5.78;;;11.60;74.30;;;;;;5093831;28;20100;-77
2022/01/12 09:57:23;;;;;;;11.70;5.40;;;11.60;74.60;;;;;;5093832;28;20028;-76
2022/01/12 09:59:49;;;;;;;17.48;8.30;;;11.70;74.10;;;;;;5093532;28;20024;-75
2022/01/12 10:02:21;;;;;;;9.05;5.50;;;11.80;73.70;;;;;;5094109;28;20031;-75
2022/01/12 10:04:47;;;;;;;9.43;5.22;;;11.70;74.00;;;;;;5093514;28;20529;-75
2022/01/12 10:07:13;;;;;;;8.85;5.22;;;11.70;72.90;;;;;;5092658;28;20044;-74
2022/01/12 10:09:48;;;;;;;14.38;5.88;;;11.90;73.00;;;;;;5092309;28;20028;-74
2022/01/12 10:12:16;;;;;;;9.88;4.47;;;12.20;72.90;;;;;;5090885;28;20541;-74
2022/01/12 10:14:52;;;;;;;9.38;4.97;;;12.20;72.40;;;;;;5092907;28;20468;-75
2022/01/12 10:17:29;;;;;;;9.93;5.35;;;12.20;72.90;;;;;;5092243;28;20032;-74
2022/01/12 10:20:07;;;;;;;12.70;6.53;;;12.20;72.40;;;;;;5093274;28;20028;-76
2022/01/12 10:22:33;;;;;;;7.07;4.70;;;12.50;70.50;;;;;;5091664;28;20464;-74
2022/01/12 10:25:00;;;;;;;40.22;15.35;;;12.60;69.60;;;;;;5091994;28;20115;-74
2022/01/12 10:27:26;;;;;;;10.02;5.00;;;12.50;69.40;;;;;;5089527;28;20357;-75
2022/01/12 10:29:58;;;;;;;8.98;4.13;;;12.00;69.00;;;;;;5092515;28;20070;-75
2022/01/12 10:32:24;;;;;;;35.65;14.60;;;12.40;67.50;;;;;;5091232;28;20020;-75
2022/01/12 10:34:50;;;;;;;11.55;6.65;;;12.30;68.90;;;;;;5090895;28;20020;-74
2022/01/12 10:37:19;;;;;;;9.93;5.07;;;11.80;67.70;;;;;;5093204;28;20036;-75
2022/01/12 10:39:49;;;;;;;7.60;4.30;;;11.40;68.00;;;;;;5090563;28;20425;-75
2022/01/12 10:42:21;;;;;;;7.20;4.13;;;11.40;67.90;;;;;;5092051;28;20107;-74
2022/01/12 10:44:49;;;;;;;7.38;4.43;;;11.50;68.80;;;;;;5090336;28;20072;-74
2022/01/12 10:47:19;;;;;;;9.48;4.70;;;11.80;69.30;;;;;;5092643;28;20036;-74
2022/01/12 10:50:07;;;;;;;8.95;4.65;;;11.80;68.70;;;;;;5091018;28;20024;-74
2022/01/12 10:52:39;;;;;;;8.25;4.88;;;11.80;69.30;;;;;;5093008;28;20023;-73
2022/01/12 10:55:08;;;;;;;8.07;4.63;;;12.70;68.10;;;;;;5092718;28;20055;-74
2022/01/12 10:57:36;;;;;;;9.07;4.55;;;13.00;67.80;;;;;;5091915;28;20111;-75
2022/01/12 11:00:22;;;;;;;11.45;5.03;;;12.80;68.70;;;;;;5093489;28;20024;-74
2022/01/12 11:02:50;;;;;;;15.98;4.80;;;12.60;68.40;;;;;;5093375;28;20099;-74
2022/01/12 11:05:21;;;;;;;9.90;5.07;;;12.70;73.20;;;;;;5093119;28;20064;-76
2022/01/12 11:07:48;;;;;;;11.10;4.80;;;12.90;71.90;;;;;;5092032;28;20034;-74
2022/01/12 11:10:15;;;;;;;7.38;4.45;;;13.30;70.00;;;;;;5093017;28;20028;-73
2022/01/12 11:12:41;;;;;;;9.82;5.10;;;13.50;68.10;;;;;;5092114;28;20111;-73
2022/01/12 11:15:12;;;;;;;9.10;5.35;;;13.50;69.00;;;;;;5093266;28;20028;-77
2022/01/12 11:17:40;;;;;;;7.97;4.50;;;13.40;69.10;;;;;;5091155;28;20023;-75
2022/01/12 11:20:15;;;;;;;8.45;4.90;;;12.60;68.40;;;;;;5092398;28;21191;-76
2022/01/12 11:22:56;;;;;;;9.68;5.03;;;12.40;69.70;;;;;;5092597;28;20027;-76
2022/01/12 11:25:44;;;;;;;8.65;4.80;;;12.60;68.10;;;;;;5092236;28;20060;-76
2022/01/12 11:28:15;;;;;;;10.60;4.38;;;12.60;67.50;;;;;;5089230;28;20416;-76
2022/01/12 11:30:50;;;;;;;9.18;5.20;;;12.50;68.00;;;;;;5091884;28;20052;-74
2022/01/12 11:33:17;;;;;;;10.55;4.95;;;12.40;67.90;;;;;;5092164;28;20024;-76
2022/01/12 11:35:51;;;;;;;10.45;5.75;;;12.50;68.40;;;;;;5091276;28;20421;-75
2022/01/12 11:38:29;;;;;;;10.55;5.00;;;12.70;67.50;;;;;;5091137;28;20020;-75
2022/01/12 11:41:15;;;;;;;8.32;5.03;;;12.40;67.60;;;;;;5090183;28;20032;-75
2022/01/12 11:43:42;;;;;;;11.50;5.47;;;12.40;67.10;;;;;;5091630;28;20032;-75
2022/01/12 11:46:10;;;;;;;11.15;5.88;;;12.40;68.30;;;;;;5090913;28;20400;-75
2022/01/12 11:48:36;;;;;;;11.27;6.35;;;12.50;70.20;;;;;;5090540;28;20024;-75
2022/01/12 11:51:02;;;;;;;10.88;6.10;;;12.10;76.60;;;;;;5091440;28;20484;-75
2022/01/12 11:53:31;;;;;;;11.45;6.00;;;11.80;75.00;;;;;;5090702;28;20105;-76
2022/01/12 11:56:13;;;;;;;15.05;7.20;;;11.70;76.00;;;;;;5089942;28;20028;-76
2022/01/12 11:59:09;;;;;;;12.90;7.30;;;11.50;75.00;;;;;;5090671;28;21555;-78
2022/01/12 12:01:50;;;;;;;15.45;7.60;;;11.10;75.60;;;;;;5090968;28;20040;-75
2022/01/12 12:04:27;;;;;;;12.10;7.07;;;10.80;75.90;;;;;;5094372;28;20008;-74
2022/01/12 12:07:07;;;;;;;16.02;6.50;;;10.60;76.20;;;;;;5093565;28;20036;-74
2022/01/12 12:09:44;;;;;;;12.93;6.68;;;10.10;76.10;;;;;;5095889;28;20023;-74
2022/01/12 12:12:22;;;;;;;14.40;6.82;;;9.90;76.90;;;;;;5099321;28;20024;-75
2022/01/12 12:14:49;;;;;;;13.43;7.18;;;9.80;77.30;;;;;;5116492;28;20020;-75
2022/01/12 12:17:17;;;;;;;13.07;7.13;;;9.80;76.00;;;;;;5116319;28;20028;-75
2022/01/12 12:19:43;;;;;;;12.60;7.00;;;9.80;77.00;;;;;;5116191;28;20028;-75
2022/01/12 12:22:17;;;;;;;13.63;7.07;;;9.70;77.50;;;;;;5116034;28;20100;-74
2022/01/12 12:24:44;;;;;;;16.67;8.55;;;9.60;78.40;;;;;;5083591;28;20036;-74
2022/01/12 12:27:11;;;;;;;13.65;7.00;;;9.60;79.40;;;;;;5094909;28;20488;-74
2022/01/12 12:29:38;;;;;;;15.50;6.65;;;9.60;78.60;;;;;;5095410;28;20028;-74
2022/01/12 12:32:06;;;;;;;22.05;6.75;;;9.50;78.30;;;;;;5095318;28;20501;-74
2022/01/12 12:34:33;;;;;;;11.73;6.18;;;9.40;78.70;;;;;;5095568;28;20032;-75
2022/01/12 12:37:04;;;;;;;13.27;6.45;;;9.40;78.60;;;;;;5094924;28;20131;-74
2022/01/12 12:39:35;;;;;;;14.38;4.97;;;9.30;77.30;;;;;;5094750;28;20024;-76
2022/01/12 12:42:04;;;;;;;10.73;5.70;;;9.00;74.40;;;;;;5093912;28;20566;-76
2022/01/12 12:44:32;;;;;;;11.95;5.50;;;8.80;76.30;;;;;;5092985;28;20067;-76
2022/01/12 12:47:16;;;;;;;12.38;5.50;;;8.60;75.90;;;;;;5093577;28;20035;-76
2022/01/12 12:49:51;;;;;;;17.63;5.53;;;8.50;75.20;;;;;;5092587;28;20121;-77
2022/01/12 12:52:35;;;;;;;12.23;6.35;;;8.50;76.50;;;;;;5097054;28;20020;-76
2022/01/12 12:55:16;;;;;;;16.30;7.53;;;8.40;77.50;;;;;;5108350;28;20484;-76
2022/01/12 12:57:50;;;;;;;29.92;12.15;;;8.30;77.10;;;;;;5108584;28;20019;-77
2022/01/12 13:00:20;;;;;;;15.10;6.45;;;8.30;78.40;;;;;;5110702;28;20023;-75
2022/01/12 13:02:49;;;;;;;19.20;6.28;;;8.20;78.40;;;;;;5104143;28;20503;-76
2022/01/12 13:05:27;;;;;;;14.05;5.53;;;8.10;78.70;;;;;;5101128;28;20032;-77
2022/01/12 13:07:53;;;;;;;14.95;7.72;;;8.00;79.00;;;;;;5097503;28;20031;-77
2022/01/12 13:10:26;;;;;;;17.13;8.50;;;7.80;79.80;;;;;;5094150;28;20325;-76
2022/01/12 13:13:25;;;;;;;14.48;6.68;;;7.70;80.50;;;;;;5093111;28;20031;-77
2022/01/12 13:15:58;;;;;;;12.68;6.70;;;7.80;81.50;;;;;;5094739;28;20020;-76
2022/01/12 13:18:27;;;;;;;17.38;7.78;;;7.80;81.80;;;;;;5091087;28;20028;-76
2022/01/12 13:21:08;;;;;;;19.25;10.43;;;7.80;82.20;;;;;;5091021;28;20024;-76
2022/01/12 13:23:39;;;;;;;16.08;7.13;;;7.70;82.70;;;;;;5097424;28;20020;-75
2022/01/12 13:26:05;;;;;;;25.40;10.25;;;7.60;82.90;;;;;;5095925;28;20509;-76
2022/01/12 13:28:37;;;;;;;15.32;7.93;;;7.60;83.50;;;;;;5095941;28;20033;-78
2022/01/12 13:31:04;;;;;;;;;;;7.50;83.40;;;;;;5097102;28;20404;-79
2022/01/12 13:33:38;;;;;;;47.20;18.85;;;7.40;84.10;;;;;;5091459;28;19908;-76
2022/01/12 13:36:18;;;;;;;30.17;10.57;;;7.30;84.70;;;;;;5093294;28;20111;-76
2022/01/12 13:38:54;;;;;;;25.80;12.77;;;7.20;85.20;;;;;;5094092;28;20019;-77
2022/01/12 13:41:27;;;;;;;22.23;10.73;;;7.20;85.60;;;;;;5092587;28;20027;-77
2022/01/12 13:44:05;;;;;;;35.88;14.45;;;7.10;85.90;;;;;;5093991;28;20395;-76
2022/01/12 13:46:37;;;;;;;38.28;13.93;;;7.10;85.70;;;;;;5094001;28;20119;-76
2022/01/12 13:51:37;;;;;;;48.25;19.65;;;7.20;85.90;;;;;;5093483;28;20426;-78
2022/01/12 13:54:14;;;;;;;30.77;13.00;;;7.20;86.80;;;;;;5092251;28;20468;-77
2022/01/12 13:56:42;;;;;;;16.35;8.45;;;7.20;87.00;;;;;;5091538;28;20055;-80
2022/01/12 13:59:11;;;;;;;20.58;8.88;;;7.20;85.80;;;;;;5093198;28;20375;-78
2022/01/12 14:01:41;;;;;;;23.92;8.13;;;7.20;86.60;;;;;;5093293;28;20032;-77
2022/01/12 14:04:21;;;;;;;24.23;11.75;;;7.20;86.70;;;;;;5092731;28;20024;-79
2022/01/12 14:06:51;;;;;;;23.10;11.35;;;7.10;87.10;;;;;;5072261;28;20452;-76
2022/01/12 14:09:38;;;;;;;15.05;8.32;;;7.10;87.30;;;;;;5089419;28;20036;-77
2022/01/12 14:12:15;;;;;;;18.63;9.45;;;7.10;86.50;;;;;;5093632;28;20028;-77
2022/01/12 14:14:46;;;;;;;32.45;15.85;;;7.20;87.00;;;;;;5091411;28;20027;-84
2022/01/12 14:17:25;;;;;;;15.00;8.38;;;7.20;87.10;;;;;;5091226;28;20480;-78